sensor_id;sensor_type;location;lat;lon;timestamp;temperature;humidity
13221;DHT22;6675;48.128;11.478;2024-03-23T00:55:12;9.00;92.20
13221;DHT22;6675;48.128;11.478;2024-03-23T00:57:37;7.90;69.50
13221;DHT22;6675;48.128;11.478;2024-03-23T01:00:04;9.30;93.20
13221;DHT22;6675;48.128;11.478;2024-03-23T01:02:32;8.00;70.70
13221;DHT22;6675;48.128;11.478;2024-03-23T01:04:57;5.70;92.00
13221;DHT22;6675;48.128;11.478;2024-03-23T01:07:23;7.50;69.80
13221;DHT22;6675;48.128;11.478;2024-03-23T01:09:48;7.70;73.70
13221;DHT22;6675;48.128;11.478;2024-03-23T01:12:14;9.00;95.80
13221;DHT22;6675;48.128;11.478;2024-03-23T01:14:39;9.20;95.60
13221;DHT22;6675;48.128;11.478;2024-03-23T01:17:05;7.50;72.90
13221;DHT22;6675;48.128;11.478;2024-03-23T01:19:30;7.60;74.50
13221;DHT22;6675;48.128;11.478;2024-03-23T01:21:56;7.40;75.60
13221;DHT22;6675;48.128;11.478;2024-03-23T01:24:21;7.20;78.10
13221;DHT22;6675;48.128;11.478;2024-03-23T01:26:47;7.40;77.00
13221;DHT22;6675;48.128;11.478;2024-03-23T01:29:12;6.90;78.50
13221;DHT22;6675;48.128;11.478;2024-03-23T01:31:38;7.10;78.40
13221;DHT22;6675;48.128;11.478;2024-03-23T01:34:04;6.60;79.90
13221;DHT22;6675;48.128;11.478;2024-03-23T01:36:29;6.90;79.00
13221;DHT22;6675;48.128;11.478;2024-03-23T01:38:55;7.20;82.20
13221;DHT22;6675;48.128;11.478;2024-03-23T01:41:20;6.90;82.30
13221;DHT22;6675;48.128;11.478;2024-03-23T01:43:46;5.30;99.20
13221;DHT22;6675;48.128;11.478;2024-03-23T01:46:13;6.70;84.40
13221;DHT22;6675;48.128;11.478;2024-03-23T01:48:38;6.20;99.90
13221;DHT22;6675;48.128;11.478;2024-03-23T01:51:04;6.40;86.90
13221;DHT22;6675;48.128;11.478;2024-03-23T01:53:30;6.60;88.40
13221;DHT22;6675;48.128;11.478;2024-03-23T01:55:56;6.80;86.40
13221;DHT22;6675;48.128;11.478;2024-03-23T01:58:22;7.70;99.90
13221;DHT22;6675;48.128;11.478;2024-03-23T02:00:48;4.20;99.90
13221;DHT22;6675;48.128;11.478;2024-03-23T02:03:26;6.00;88.20
13221;DHT22;6675;48.128;11.478;2024-03-23T02:05:56;6.50;88.60
13221;DHT22;6675;48.128;11.478;2024-03-23T02:08:23;6.10;88.40
13221;DHT22;6675;48.128;11.478;2024-03-23T02:10:50;6.40;99.90
13221;DHT22;6675;48.128;11.478;2024-03-23T02:13:18;4.90;99.90
13221;DHT22;6675;48.128;11.478;2024-03-23T02:15:43;8.40;99.90
13221;DHT22;6675;48.128;11.478;2024-03-23T02:18:10;6.40;89.50
13221;DHT22;6675;48.128;11.478;2024-03-23T02:20:36;6.40;91.60
13221;DHT22;6675;48.128;11.478;2024-03-23T02:23:03;6.00;90.90
13221;DHT22;6675;48.128;11.478;2024-03-23T02:25:28;6.40;87.50
13221;DHT22;6675;48.128;11.478;2024-03-23T02:27:54;6.10;87.30
13221;DHT22;6675;48.128;11.478;2024-03-23T02:30:20;4.10;99.00
13221;DHT22;6675;48.128;11.478;2024-03-23T02:32:46;5.80;87.30
13221;DHT22;6675;48.128;11.478;2024-03-23T02:35:12;6.40;99.90
13221;DHT22;6675;48.128;11.478;2024-03-23T02:37:37;4.40;99.20
13221;DHT22;6675;48.128;11.478;2024-03-23T02:40:03;6.00;85.80
13221;DHT22;6675;48.128;11.478;2024-03-23T02:42:29;3.40;99.90
13221;DHT22;6675;48.128;11.478;2024-03-23T02:44:54;5.40;89.40
13221;DHT22;6675;48.128;11.478;2024-03-23T02:47:20;5.80;99.90
13221;DHT22;6675;48.128;11.478;2024-03-23T02:49:45;5.40;92.90
13221;DHT22;6675;48.128;11.478;2024-03-23T02:52:11;5.20;93.00
13221;DHT22;6675;48.128;11.478;2024-03-23T02:54:36;5.20;92.60
13221;DHT22;6675;48.128;11.478;2024-03-23T02:57:02;5.70;92.00
13221;DHT22;6675;48.128;11.478;2024-03-23T02:59:28;5.20;99.90
13221;DHT22;6675;48.128;11.478;2024-03-23T03:01:53;5.60;92.40
13221;DHT22;6675;48.128;11.478;2024-03-23T03:04:19;5.40;92.30
13221;DHT22;6675;48.128;11.478;2024-03-23T03:06:48;5.50;91.50
13221;DHT22;6675;48.128;11.478;2024-03-23T03:09:13;5.40;91.60
13221;DHT22;6675;48.128;11.478;2024-03-23T03:11:39;5.60;92.20
13221;DHT22;6675;48.128;11.478;2024-03-23T03:14:04;5.40;92.80
13221;DHT22;6675;48.128;11.478;2024-03-23T03:16:32;5.40;94.40
13221;DHT22;6675;48.128;11.478;2024-03-23T03:18:58;5.60;95.70
13221;DHT22;6675;48.128;11.478;2024-03-23T03:21:24;5.40;99.90
13221;DHT22;6675;48.128;11.478;2024-03-23T03:23:49;6.50;99.90
13221;DHT22;6675;48.128;11.478;2024-03-23T03:26:16;5.40;93.20
13221;DHT22;6675;48.128;11.478;2024-03-23T03:28:42;5.60;99.90
13221;DHT22;6675;48.128;11.478;2024-03-23T03:31:08;5.50;93.80
13221;DHT22;6675;48.128;11.478;2024-03-23T03:33:34;5.00;99.90
13221;DHT22;6675;48.128;11.478;2024-03-23T03:35:59;5.60;93.40
13221;DHT22;6675;48.128;11.478;2024-03-23T03:38:25;5.10;93.40
13221;DHT22;6675;48.128;11.478;2024-03-23T03:40:50;5.20;93.90
13221;DHT22;6675;48.128;11.478;2024-03-23T03:43:16;4.90;93.40
13221;DHT22;6675;48.128;11.478;2024-03-23T03:45:41;5.80;99.90
13221;DHT22;6675;48.128;11.478;2024-03-23T03:48:07;5.20;96.50
13221;DHT22;6675;48.128;11.478;2024-03-23T03:50:33;5.30;95.10
13221;DHT22;6675;48.128;11.478;2024-03-23T03:52:58;4.70;95.00
13221;DHT22;6675;48.128;11.478;2024-03-23T03:55:24;5.30;96.40
13221;DHT22;6675;48.128;11.478;2024-03-23T03:57:49;3.60;99.90
13221;DHT22;6675;48.128;11.478;2024-03-23T04:00:15;3.30;99.90
13221;DHT22;6675;48.128;11.478;2024-03-23T04:02:41;5.10;98.20
13221;DHT22;6675;48.128;11.478;2024-03-23T04:05:07;6.90;99.90
13221;DHT22;6675;48.128;11.478;2024-03-23T04:07:33;5.00;97.00
13221;DHT22;6675;48.128;11.478;2024-03-23T04:09:59;2.80;99.90
13221;DHT22;6675;48.128;11.478;2024-03-23T04:12:24;4.90;97.30
13221;DHT22;6675;48.128;11.478;2024-03-23T04:14:50;4.90;98.10
13221;DHT22;6675;48.128;11.478;2024-03-23T04:17:16;5.20;99.90
13221;DHT22;6675;48.128;11.478;2024-03-23T04:19:41;4.90;99.10
13221;DHT22;6675;48.128;11.478;2024-03-23T04:22:07;5.00;98.50
13221;DHT22;6675;48.128;11.478;2024-03-23T04:24:33;5.20;98.60
13221;DHT22;6675;48.128;11.478;2024-03-23T04:26:59;5.00;99.40
13221;DHT22;6675;48.128;11.478;2024-03-23T04:29:24;5.20;99.40
13221;DHT22;6675;48.128;11.478;2024-03-23T04:31:52;6.80;99.90
13221;DHT22;6675;48.128;11.478;2024-03-23T04:34:17;5.30;98.20
13221;DHT22;6675;48.128;11.478;2024-03-23T04:36:43;5.40;96.50
13221;DHT22;6675;48.128;11.478;2024-03-23T04:39:09;5.40;96.90
13221;DHT22;6675;48.128;11.478;2024-03-23T04:41:35;5.50;96.10
13221;DHT22;6675;48.128;11.478;2024-03-23T04:44:01;6.60;99.90
13221;DHT22;6675;48.128;11.478;2024-03-23T04:46:26;5.70;95.50
13221;DHT22;6675;48.128;11.478;2024-03-23T04:48:52;5.60;95.00
13221;DHT22;6675;48.128;11.478;2024-03-23T04:51:22;5.20;93.00
13221;DHT22;6675;48.128;11.478;2024-03-23T04:53:47;3.40;99.90
13221;DHT22;6675;48.128;11.478;2024-03-23T04:56:14;5.90;92.60
13221;DHT22;6675;48.128;11.478;2024-03-23T04:58:39;3.60;99.90
13221;DHT22;6675;48.128;11.478;2024-03-23T05:01:05;5.40;91.90
13221;DHT22;6675;48.128;11.478;2024-03-23T05:03:31;6.00;93.00
13221;DHT22;6675;48.128;11.478;2024-03-23T05:05:56;6.40;99.90
13221;DHT22;6675;48.128;11.478;2024-03-23T05:08:22;6.10;92.50
13221;DHT22;6675;48.128;11.478;2024-03-23T05:10:47;5.80;92.00
13221;DHT22;6675;48.128;11.478;2024-03-23T05:13:13;6.10;92.20
13221;DHT22;6675;48.128;11.478;2024-03-23T05:15:38;6.20;91.30
13221;DHT22;6675;48.128;11.478;2024-03-23T05:18:05;4.60;99.90
13221;DHT22;6675;48.128;11.478;2024-03-23T05:20:31;6.40;91.70
13221;DHT22;6675;48.128;11.478;2024-03-23T05:22:56;6.10;91.50
13221;DHT22;6675;48.128;11.478;2024-03-23T05:25:22;8.10;99.90
13221;DHT22;6675;48.128;11.478;2024-03-23T05:27:48;6.30;91.80
13221;DHT22;6675;48.128;11.478;2024-03-23T05:30:14;4.20;99.90
13221;DHT22;6675;48.128;11.478;2024-03-23T05:32:39;4.50;99.90
13221;DHT22;6675;48.128;11.478;2024-03-23T05:35:09;4.40;99.90
13221;DHT22;6675;48.128;11.478;2024-03-23T05:37:35;7.30;99.90
13221;DHT22;6675;48.128;11.478;2024-03-23T05:40:01;8.00;99.90
13221;DHT22;6675;48.128;11.478;2024-03-23T05:42:27;4.70;99.90
13221;DHT22;6675;48.128;11.478;2024-03-23T05:44:52;6.20;92.60
13221;DHT22;6675;48.128;11.478;2024-03-23T05:47:18;6.20;93.00
13221;DHT22;6675;48.128;11.478;2024-03-23T05:49:43;6.80;99.90
13221;DHT22;6675;48.128;11.478;2024-03-23T05:52:11;4.70;99.90
13221;DHT22;6675;48.128;11.478;2024-03-23T05:54:37;6.20;93.80
13221;DHT22;6675;48.128;11.478;2024-03-23T05:57:03;6.50;93.20
13221;DHT22;6675;48.128;11.478;2024-03-23T05:59:29;5.50;99.90
13221;DHT22;6675;48.128;11.478;2024-03-23T06:04:21;8.00;99.90
13221;DHT22;6675;48.128;11.478;2024-03-23T06:06:49;6.60;92.60
13221;DHT22;6675;48.128;11.478;2024-03-23T06:09:14;6.60;92.30
13221;DHT22;6675;48.128;11.478;2024-03-23T06:11:40;6.30;91.70
13221;DHT22;6675;48.128;11.478;2024-03-23T06:14:05;8.20;99.90
13221;DHT22;6675;48.128;11.478;2024-03-23T06:16:31;6.50;91.60
13221;DHT22;6675;48.128;11.478;2024-03-23T06:18:57;6.20;92.10
13221;DHT22;6675;48.128;11.478;2024-03-23T06:21:23;8.40;99.90
13221;DHT22;6675;48.128;11.478;2024-03-23T06:23:51;8.50;99.90
13221;DHT22;6675;48.128;11.478;2024-03-23T06:26:18;7.10;92.30
13221;DHT22;6675;48.128;11.478;2024-03-23T06:28:44;5.30;99.90
13221;DHT22;6675;48.128;11.478;2024-03-23T06:31:10;6.90;92.70
13221;DHT22;6675;48.128;11.478;2024-03-23T06:33:36;9.50;98.40
13221;DHT22;6675;48.128;11.478;2024-03-23T06:36:02;6.60;99.70
13221;DHT22;6675;48.128;11.478;2024-03-23T06:38:28;8.30;80.00
13221;DHT22;6675;48.128;11.478;2024-03-23T06:40:54;8.20;73.30
13221;DHT22;6675;48.128;11.478;2024-03-23T06:43:20;9.70;86.10
13221;DHT22;6675;48.128;11.478;2024-03-23T06:45:55;8.60;81.50
13221;DHT22;6675;48.128;11.478;2024-03-23T06:48:21;9.40;58.30
13221;DHT22;6675;48.128;11.478;2024-03-23T06:50:47;9.60;50.50
13221;DHT22;6675;48.128;11.478;2024-03-23T06:53:14;10.00;46.50
13221;DHT22;6675;48.128;11.478;2024-03-23T06:55:40;10.30;30.00
13221;DHT22;6675;48.128;11.478;2024-03-23T06:58:06;12.30;65.40
13221;DHT22;6675;48.128;11.478;2024-03-23T07:00:31;10.60;29.40
13221;DHT22;6675;48.128;11.478;2024-03-23T07:03:01;11.70;61.00
13221;DHT22;6675;48.128;11.478;2024-03-23T07:05:27;10.70;29.40
13221;DHT22;6675;48.128;11.478;2024-03-23T07:07:52;11.20;29.80
13221;DHT22;6675;48.128;11.478;2024-03-23T07:10:18;11.70;53.90
13221;DHT22;6675;48.128;11.478;2024-03-23T07:12:44;12.30;30.80
13221;DHT22;6675;48.128;11.478;2024-03-23T07:15:09;14.20;43.30
13221;DHT22;6675;48.128;11.478;2024-03-23T07:17:35;12.70;20.90
13221;DHT22;6675;48.128;11.478;2024-03-23T07:20:01;12.60;14.90
13221;DHT22;6675;48.128;11.478;2024-03-23T07:22:30;13.30;9.90
13221;DHT22;6675;48.128;11.478;2024-03-23T07:24:55;14.00;24.20
13221;DHT22;6675;48.128;11.478;2024-03-23T07:27:21;13.60;4.30
13221;DHT22;6675;48.128;11.478;2024-03-23T07:29:46;14.60;21.80
13221;DHT22;6675;48.128;11.478;2024-03-23T07:32:12;12.70;14.90
13221;DHT22;6675;48.128;11.478;2024-03-23T07:34:37;13.70;1.00
13221;DHT22;6675;48.128;11.478;2024-03-23T07:37:03;13.10;8.40
13221;DHT22;6675;48.128;11.478;2024-03-23T07:39:29;13.40;1.00
13221;DHT22;6675;48.128;11.478;2024-03-23T07:41:54;13.90;1.00
13221;DHT22;6675;48.128;11.478;2024-03-23T07:46:46;12.10;1.00
13221;DHT22;6675;48.128;11.478;2024-03-23T07:49:11;12.70;1.00
13221;DHT22;6675;48.128;11.478;2024-03-23T07:51:37;12.90;3.60
13221;DHT22;6675;48.128;11.478;2024-03-23T07:54:04;12.40;6.00
13221;DHT22;6675;48.128;11.478;2024-03-23T07:56:30;12.70;8.00
13221;DHT22;6675;48.128;11.478;2024-03-23T07:58:55;12.30;11.30
13221;DHT22;6675;48.128;11.478;2024-03-23T08:01:21;12.20;19.00
13221;DHT22;6675;48.128;11.478;2024-03-23T08:03:46;11.70;23.50
13221;DHT22;6675;48.128;11.478;2024-03-23T08:06:18;11.70;30.00
13221;DHT22;6675;48.128;11.478;2024-03-23T08:08:59;12.00;30.50
13221;DHT22;6675;48.128;11.478;2024-03-23T08:11:26;11.70;30.40
13221;DHT22;6675;48.128;11.478;2024-03-23T08:13:52;11.20;29.80
13221;DHT22;6675;48.128;11.478;2024-03-23T08:16:18;10.70;33.00
13221;DHT22;6675;48.128;11.478;2024-03-23T08:18:43;10.50;76.80
13221;DHT22;6675;48.128;11.478;2024-03-23T08:21:09;10.00;48.30
13221;DHT22;6675;48.128;11.478;2024-03-23T08:23:35;9.80;52.90
13221;DHT22;6675;48.128;11.478;2024-03-23T08:28:30;9.10;63.70
13221;DHT22;6675;48.128;11.478;2024-03-23T08:30:56;9.90;91.80
13221;DHT22;6675;48.128;11.478;2024-03-23T08:33:22;8.90;70.20
13221;DHT22;6675;48.128;11.478;2024-03-23T08:36:02;9.60;95.00
13221;DHT22;6675;48.128;11.478;2024-03-23T08:38:29;9.40;73.00
13221;DHT22;6675;48.128;11.478;2024-03-23T08:41:09;9.60;94.40
13221;DHT22;6675;48.128;11.478;2024-03-23T08:43:40;8.70;76.20
13221;DHT22;6675;48.128;11.478;2024-03-23T08:46:09;9.30;76.00
13221;DHT22;6675;48.128;11.478;2024-03-23T08:48:37;9.20;80.00
13221;DHT22;6675;48.128;11.478;2024-03-23T08:51:04;9.10;84.70
13221;DHT22;6675;48.128;11.478;2024-03-23T08:53:30;9.10;78.70
13221;DHT22;6675;48.128;11.478;2024-03-23T08:55:56;9.30;75.50
13221;DHT22;6675;48.128;11.478;2024-03-23T08:58:24;9.20;97.70
13221;DHT22;6675;48.128;11.478;2024-03-23T09:00:50;7.10;93.70
13221;DHT22;6675;48.128;11.478;2024-03-23T09:03:16;10.50;99.90
13221;DHT22;6675;48.128;11.478;2024-03-23T09:05:42;7.00;99.70
13221;DHT22;6675;48.128;11.478;2024-03-23T09:08:07;9.00;88.10
13221;DHT22;6675;48.128;11.478;2024-03-23T09:10:40;9.00;88.30
13221;DHT22;6675;48.128;11.478;2024-03-23T09:13:06;9.70;99.90
13221;DHT22;6675;48.128;11.478;2024-03-23T09:15:35;9.80;99.90
13221;DHT22;6675;48.128;11.478;2024-03-23T09:18:02;9.40;99.90
13221;DHT22;6675;48.128;11.478;2024-03-23T09:20:28;9.10;90.70
13221;DHT22;6675;48.128;11.478;2024-03-23T09:22:53;10.60;90.30
13221;DHT22;6675;48.128;11.478;2024-03-23T09:25:19;7.50;96.70
13221;DHT22;6675;48.128;11.478;2024-03-23T09:27:47;9.20;97.50
13221;DHT22;6675;48.128;11.478;2024-03-23T09:30:13;9.90;98.40
13221;DHT22;6675;48.128;11.478;2024-03-23T09:32:42;9.30;84.00
13221;DHT22;6675;48.128;11.478;2024-03-23T09:35:08;9.30;97.90
13221;DHT22;6675;48.128;11.478;2024-03-23T09:37:34;10.60;97.40
13221;DHT22;6675;48.128;11.478;2024-03-23T09:39:59;8.60;97.10
13221;DHT22;6675;48.128;11.478;2024-03-23T09:42:25;11.10;96.70
13221;DHT22;6675;48.128;11.478;2024-03-23T09:44:51;8.70;77.80
13221;DHT22;6675;48.128;11.478;2024-03-23T09:47:17;9.20;75.70
13221;DHT22;6675;48.128;11.478;2024-03-23T09:49:43;9.80;96.30
13221;DHT22;6675;48.128;11.478;2024-03-23T09:52:09;10.00;95.50
13221;DHT22;6675;48.128;11.478;2024-03-23T09:54:35;8.90;74.60
13221;DHT22;6675;48.128;11.478;2024-03-23T09:57:01;7.00;91.20
13221;DHT22;6675;48.128;11.478;2024-03-23T10:01:53;10.10;90.80
13221;DHT22;6675;48.128;11.478;2024-03-23T10:04:38;10.00;90.20
13221;DHT22;6675;48.128;11.478;2024-03-23T10:07:15;9.50;89.40
13221;DHT22;6675;48.128;11.478;2024-03-23T10:09:40;9.40;54.90
13221;DHT22;6675;48.128;11.478;2024-03-23T10:12:14;9.20;48.30
13221;DHT22;6675;48.128;11.478;2024-03-23T10:14:40;10.10;77.90
13221;DHT22;6675;48.128;11.478;2024-03-23T10:17:17;9.80;74.40
13221;DHT22;6675;48.128;11.478;2024-03-23T10:22:17;8.00;64.00
13221;DHT22;6675;48.128;11.478;2024-03-23T10:24:43;9.40;29.40
13221;DHT22;6675;48.128;11.478;2024-03-23T10:27:09;9.60;62.60
13221;DHT22;6675;48.128;11.478;2024-03-23T10:29:35;9.20;29.10
13221;DHT22;6675;48.128;11.478;2024-03-23T10:32:17;9.50;63.30
13221;DHT22;6675;48.128;11.478;2024-03-23T10:34:43;9.30;29.10
13221;DHT22;6675;48.128;11.478;2024-03-23T10:37:09;9.30;26.90
13221;DHT22;6675;48.128;11.478;2024-03-23T10:39:38;9.10;28.90
13221;DHT22;6675;48.128;11.478;2024-03-23T10:42:10;11.30;67.60
13221;DHT22;6675;48.128;11.478;2024-03-23T10:44:36;9.20;29.10
13221;DHT22;6675;48.128;11.478;2024-03-23T10:47:03;9.60;27.20
13221;DHT22;6675;48.128;11.478;2024-03-23T10:49:33;10.90;75.40
13221;DHT22;6675;48.128;11.478;2024-03-23T10:52:05;10.50;79.00
13221;DHT22;6675;48.128;11.478;2024-03-23T10:54:32;8.50;83.60
13221;DHT22;6675;48.128;11.478;2024-03-23T10:57:08;8.40;42.80
13221;DHT22;6675;48.128;11.478;2024-03-23T10:59:36;8.10;45.80
13221;DHT22;6675;48.128;11.478;2024-03-23T11:02:03;8.60;90.80
13221;DHT22;6675;48.128;11.478;2024-03-23T11:04:30;9.40;91.20
13221;DHT22;6675;48.128;11.478;2024-03-23T11:06:57;9.10;92.40
13221;DHT22;6675;48.128;11.478;2024-03-23T11:09:38;6.80;92.50
13221;DHT22;6675;48.128;11.478;2024-03-23T11:15:34;9.00;77.70
13221;DHT22;6675;48.128;11.478;2024-03-23T11:17:34;9.60;76.70
13221;DHT22;6675;48.128;11.478;2024-03-23T11:27:40;9.50;74.80
13221;DHT22;6675;48.128;11.478;2024-03-23T11:30:13;9.00;71.60
13221;DHT22;6675;48.128;11.478;2024-03-23T11:32:39;8.30;70.20
13221;DHT22;6675;48.128;11.478;2024-03-23T11:35:05;8.80;69.40
13221;DHT22;6675;48.128;11.478;2024-03-23T11:37:31;8.80;28.70
13221;DHT22;6675;48.128;11.478;2024-03-23T11:39:57;9.70;67.50
13221;DHT22;6675;48.128;11.478;2024-03-23T11:42:23;9.90;71.70
13221;DHT22;6675;48.128;11.478;2024-03-23T11:47:14;8.70;72.40
13221;DHT22;6675;48.128;11.478;2024-03-23T11:49:40;8.90;28.90
13221;DHT22;6675;48.128;11.478;2024-03-23T11:52:08;10.20;62.80
13221;DHT22;6675;48.128;11.478;2024-03-23T11:54:33;9.00;16.60
13221;DHT22;6675;48.128;11.478;2024-03-23T11:57:01;9.20;60.30
13221;DHT22;6675;48.128;11.478;2024-03-23T11:59:37;10.00;58.80
13221;DHT22;6675;48.128;11.478;2024-03-23T12:02:10;9.70;54.50
13221;DHT22;6675;48.128;11.478;2024-03-23T12:04:39;9.80;17.10
13221;DHT22;6675;48.128;11.478;2024-03-23T12:07:18;10.20;6.60
13221;DHT22;6675;48.128;11.478;2024-03-23T12:10:07;10.60;34.90
13221;DHT22;6675;48.128;11.478;2024-03-23T12:12:33;12.30;33.00
13221;DHT22;6675;48.128;11.478;2024-03-23T12:15:07;8.90;1.00
13221;DHT22;6675;48.128;11.478;2024-03-23T12:17:34;10.20;1.00
13221;DHT22;6675;48.128;11.478;2024-03-23T12:20:00;9.80;1.00
13221;DHT22;6675;48.128;11.478;2024-03-23T12:22:26;9.70;1.40
13221;DHT22;6675;48.128;11.478;2024-03-23T12:24:52;7.00;35.20
13221;DHT22;6675;48.128;11.478;2024-03-23T12:27:18;11.90;39.10
13221;DHT22;6675;48.128;11.478;2024-03-23T12:32:13;10.30;1.00
13221;DHT22;6675;48.128;11.478;2024-03-23T12:34:39;9.90;1.00
13221;DHT22;6675;48.128;11.478;2024-03-23T12:37:05;11.00;22.80
13221;DHT22;6675;48.128;11.478;2024-03-23T12:39:34;11.30;22.20
13221;DHT22;6675;48.128;11.478;2024-03-23T12:42:01;10.00;1.00
13221;DHT22;6675;48.128;11.478;2024-03-23T12:44:28;9.90;1.00
13221;DHT22;6675;48.128;11.478;2024-03-23T12:46:54;12.00;17.40
13221;DHT22;6675;48.128;11.478;2024-03-23T12:49:19;10.90;13.50
13221;DHT22;6675;48.128;11.478;2024-03-23T12:51:53;10.20;1.00
13221;DHT22;6675;48.128;11.478;2024-03-23T12:54:19;7.80;13.10
13221;DHT22;6675;48.128;11.478;2024-03-23T12:56:46;10.50;13.00
13221;DHT22;6675;48.128;11.478;2024-03-23T12:59:11;10.50;15.20
13221;DHT22;6675;48.128;11.478;2024-03-23T13:01:38;10.50;1.00
13221;DHT22;6675;48.128;11.478;2024-03-23T13:04:04;11.60;9.90
13221;DHT22;6675;48.128;11.478;2024-03-23T13:06:29;10.20;8.00
13221;DHT22;6675;48.128;11.478;2024-03-23T13:09:02;9.70;1.00
13221;DHT22;6675;48.128;11.478;2024-03-23T13:11:28;10.20;1.00
13221;DHT22;6675;48.128;11.478;2024-03-23T13:13:55;11.60;2.70
13221;DHT22;6675;48.128;11.478;2024-03-23T13:16:20;9.80;1.00
13221;DHT22;6675;48.128;11.478;2024-03-23T13:18:46;10.10;1.00
13221;DHT22;6675;48.128;11.478;2024-03-23T13:21:12;9.70;1.00
13221;DHT22;6675;48.128;11.478;2024-03-23T13:23:37;10.00;1.50
13221;DHT22;6675;48.128;11.478;2024-03-23T13:26:05;7.10;4.10
13221;DHT22;6675;48.128;11.478;2024-03-23T13:28:30;9.70;1.00
13221;DHT22;6675;48.128;11.478;2024-03-23T13:30:56;7.10;2.70
13221;DHT22;6675;48.128;11.478;2024-03-23T13:33:29;10.50;5.30
13221;DHT22;6675;48.128;11.478;2024-03-23T13:35:55;10.00;1.00
13221;DHT22;6675;48.128;11.478;2024-03-23T13:38:22;10.10;5.40
13221;DHT22;6675;48.128;11.478;2024-03-23T13:43:17;8.10;1.00
13221;DHT22;6675;48.128;11.478;2024-03-23T13:45:42;9.90;3.80
13221;DHT22;6675;48.128;11.478;2024-03-23T13:48:08;9.20;1.00
13221;DHT22;6675;48.128;11.478;2024-03-23T13:50:33;9.30;1.00
13221;DHT22;6675;48.128;11.478;2024-03-23T13:52:59;9.40;1.00
13221;DHT22;6675;48.128;11.478;2024-03-23T13:55:24;9.20;1.00
13221;DHT22;6675;48.128;11.478;2024-03-23T13:57:50;7.60;5.40
13221;DHT22;6675;48.128;11.478;2024-03-23T14:00:16;8.80;1.00
13221;DHT22;6675;48.128;11.478;2024-03-23T14:02:43;11.00;8.40
13221;DHT22;6675;48.128;11.478;2024-03-23T14:05:09;5.80;12.00
13221;DHT22;6675;48.128;11.478;2024-03-23T14:07:36;8.20;16.30
13221;DHT22;6675;48.128;11.478;2024-03-23T14:10:05;8.70;1.00
13221;DHT22;6675;48.128;11.478;2024-03-23T14:12:36;8.60;2.40
13221;DHT22;6675;48.128;11.478;2024-03-23T14:15:05;7.80;45.80
13221;DHT22;6675;48.128;11.478;2024-03-23T14:17:31;7.40;55.90
13221;DHT22;6675;48.128;11.478;2024-03-23T14:19:57;8.30;60.60
13221;DHT22;6675;48.128;11.478;2024-03-23T14:22:29;7.20;65.40
13221;DHT22;6675;48.128;11.478;2024-03-23T14:24:54;4.20;52.30
13221;DHT22;6675;48.128;11.478;2024-03-23T14:27:20;7.80;64.20
13221;DHT22;6675;48.128;11.478;2024-03-23T14:29:47;7.60;62.60
13221;DHT22;6675;48.128;11.478;2024-03-23T14:32:13;4.00;61.30
13221;DHT22;6675;48.128;11.478;2024-03-23T14:34:38;7.10;60.50
13221;DHT22;6675;48.128;11.478;2024-03-23T14:37:04;6.50;58.00
13221;DHT22;6675;48.128;11.478;2024-03-23T14:39:30;6.40;51.10
13221;DHT22;6675;48.128;11.478;2024-03-23T14:44:22;8.20;49.30
13221;DHT22;6675;48.128;11.478;2024-03-23T14:46:49;6.90;9.10
13221;DHT22;6675;48.128;11.478;2024-03-23T14:49:15;6.90;12.00
13221;DHT22;6675;48.128;11.478;2024-03-23T14:51:43;7.00;12.20
13221;DHT22;6675;48.128;11.478;2024-03-23T14:54:09;7.40;10.10
13221;DHT22;6675;48.128;11.478;2024-03-23T14:56:35;7.50;3.40
13221;DHT22;6675;48.128;11.478;2024-03-23T14:59:01;8.50;47.40
13221;DHT22;6675;48.128;11.478;2024-03-23T15:01:26;7.30;51.30
13221;DHT22;6675;48.128;11.478;2024-03-23T15:03:52;7.00;9.80
13221;DHT22;6675;48.128;11.478;2024-03-23T15:06:19;7.50;44.20
13221;DHT22;6675;48.128;11.478;2024-03-23T15:08:44;8.50;48.70
13221;DHT22;6675;48.128;11.478;2024-03-23T15:11:10;8.10;48.80
13221;DHT22;6675;48.128;11.478;2024-03-23T15:13:37;8.90;49.60
13221;DHT22;6675;48.128;11.478;2024-03-23T15:16:04;5.60;57.20
13221;DHT22;6675;48.128;11.478;2024-03-23T15:18:30;6.40;44.60
13221;DHT22;6675;48.128;11.478;2024-03-23T15:20:57;7.00;8.40
13221;DHT22;6675;48.128;11.478;2024-03-23T15:23:23;8.90;49.40
13221;DHT22;6675;48.128;11.478;2024-03-23T15:25:56;8.50;52.20
13221;DHT22;6675;48.128;11.478;2024-03-23T15:28:23;7.00;15.20
13221;DHT22;6675;48.128;11.478;2024-03-23T15:30:49;7.30;12.60
13221;DHT22;6675;48.128;11.478;2024-03-23T15:33:14;7.30;9.30
13221;DHT22;6675;48.128;11.478;2024-03-23T15:38:06;6.20;14.30
13221;DHT22;6675;48.128;11.478;2024-03-23T15:40:31;4.90;46.40
13221;DHT22;6675;48.128;11.478;2024-03-23T15:42:57;8.60;40.80
13221;DHT22;6675;48.128;11.478;2024-03-23T15:45:22;7.80;38.70
13221;DHT22;6675;48.128;11.478;2024-03-23T15:47:48;6.70;35.40
13221;DHT22;6675;48.128;11.478;2024-03-23T15:50:14;7.90;1.20
13221;DHT22;6675;48.128;11.478;2024-03-23T15:52:40;8.30;34.30
13221;DHT22;6675;48.128;11.478;2024-03-23T15:55:06;5.80;1.00
13221;DHT22;6675;48.128;11.478;2024-03-23T15:57:34;8.80;28.60
13221;DHT22;6675;48.128;11.478;2024-03-23T16:00:00;6.10;27.30
13221;DHT22;6675;48.128;11.478;2024-03-23T16:02:26;8.60;31.20
13221;DHT22;6675;48.128;11.478;2024-03-23T16:07:19;7.00;1.00
13221;DHT22;6675;48.128;11.478;2024-03-23T16:09:44;10.30;18.90
13221;DHT22;6675;48.128;11.478;2024-03-23T16:12:10;8.80;1.00
13221;DHT22;6675;48.128;11.478;2024-03-23T16:17:02;9.10;1.00
13221;DHT22;6675;48.128;11.478;2024-03-23T16:19:27;9.90;15.90
13221;DHT22;6675;48.128;11.478;2024-03-23T16:21:53;6.60;11.10
13221;DHT22;6675;48.128;11.478;2024-03-23T16:24:20;6.60;13.30
13221;DHT22;6675;48.128;11.478;2024-03-23T16:26:46;9.00;14.80
13221;DHT22;6675;48.128;11.478;2024-03-23T16:29:12;10.40;12.60
13221;DHT22;6675;48.128;11.478;2024-03-23T16:31:37;9.90;15.90
13221;DHT22;6675;48.128;11.478;2024-03-23T16:34:03;9.00;10.00
13221;DHT22;6675;48.128;11.478;2024-03-23T16:36:28;9.80;13.40
13221;DHT22;6675;48.128;11.478;2024-03-23T16:38:54;10.60;12.40
13221;DHT22;6675;48.128;11.478;2024-03-23T16:41:19;8.20;1.00
13221;DHT22;6675;48.128;11.478;2024-03-23T16:43:45;5.60;12.50
13221;DHT22;6675;48.128;11.478;2024-03-23T16:46:13;5.80;11.60
13221;DHT22;6675;48.128;11.478;2024-03-23T16:48:40;9.40;17.70
13221;DHT22;6675;48.128;11.478;2024-03-23T16:51:07;5.60;16.80
13221;DHT22;6675;48.128;11.478;2024-03-23T16:53:33;9.70;21.60
13221;DHT22;6675;48.128;11.478;2024-03-23T16:56:06;9.00;19.20
13221;DHT22;6675;48.128;11.478;2024-03-23T16:58:34;8.60;26.70
13221;DHT22;6675;48.128;11.478;2024-03-23T17:01:09;8.00;1.00
13221;DHT22;6675;48.128;11.478;2024-03-23T17:03:38;7.70;1.00
13221;DHT22;6675;48.128;11.478;2024-03-23T17:06:07;7.90;1.00
13221;DHT22;6675;48.128;11.478;2024-03-23T17:08:34;7.90;29.60
13221;DHT22;6675;48.128;11.478;2024-03-23T17:11:00;7.70;1.00
13221;DHT22;6675;48.128;11.478;2024-03-23T17:13:29;7.60;1.00
13221;DHT22;6675;48.128;11.478;2024-03-23T17:15:55;9.40;31.70